Carbondale, IL (62902)

3:14 PM CDT on March 29, 2015 (GMT -0500)
Carbondale City Hall | | Change Station
CLOSE
Current Station
Personal Weather Station
Location: Carbondale, IL
Elevation: 430 ft
Nearby Weather Stations

Elev 430 ft 37.73 °N, 89.22 °W | Updated 15 minutes ago

Partly Cloudy
Partly Cloudy
55.5 °F
Feels Like 55.5 °F
N
5.0
Wind Variable Wind from South
Gusts 25.0 mph

Today
High -- | Low -- °F
--% Chance of Precip.
Yesterday
High -- | Low -- °F
Precip. -- in
6:46 AM 7:16 PM
Waxing Gibbous, 74% visible
Pressure 29.99 in
Visibility 10.0 miles
Clouds Overcast 3100 ft
Dew Point 40 °F
Humidity 55%
Rainfall 0.00 in
Snow Depth Not available.
UV 2 out of 12
Pollen 9.20 out of 12
Air Quality Not available.
Flu Activity Not available.
METAR KMDH 291952Z AUTO 19022G33KT 10SM OVC031 13/03 A2998 RMK AO2 PK WND 20033/1950 PRESFR SLP155 T01280033

More Conditions Fewer Conditions

Pressure 29.99 in
Visibility 10.0 miles
Clouds Overcast 3100 ft
Dew Point 40 °F
Humidity 55%
Rainfall 0.00 in
Snow Depth Not available.
UV 2 out of 12
Pollen 9.20 out of 12
Air Quality Not available.
Flu Activity Not available.
METAR KMDH 291952Z AUTO 19022G33KT 10SM OVC031 13/03 A2998 RMK AO2 PK WND 20033/1950 PRESFR SLP155 T01280033

More Conditions Fewer Conditions

10-Day Weather Forecast

Almanac

Astronomy

Mar. 29, 2015 Rise Set
Actual Time
Civil Twilight
Nautical Twilight
Astronomical Twilight
Moon
Length of Visible Light
Length of Day
Tomorrow will be .
, % of the Moon is Illuminated

Today's Extremes

State Highs State Lows

Community

WunderPhotos

Upload Photos

1,809,341 photos uploaded!

WunderBlogs® & News

Nearby

Air Quality

  Air Quality AQ Index Pollutant
Not available.

Snow Depth

Station Depth Elevation

Earthquake Activity

City Distance Mag. Time & Date
Minimum magnitude displayed is 2.5.

Coastal Water Temperatures

Place Temperature

Stations

Nearby Weather Stations

Station Location Temp. Windchill Dew Point Humidity Wind Precip. Elev Updated Type